Time;durP1;ratioP1;P1;durP2;ratioP2;P2;SDS_P1;SDS_P2;PMS_P1;PMS_P2;Temp;Humidity;BMP_temperature;BMP_pressure;BME280_temperature;BME280_humidity;BME280_pressure;Samples;Min_cycle;Max_cycle;Signal;HPM_P1;HPM_P2
2023/11/10 00:00:12;;;;;;;5.05;1.85;;;9.40;99.90;;;;;;5005386;28;20332;-57
2023/11/10 00:02:43;;;;;;;7.80;1.88;;;9.50;99.90;;;;;;5008834;28;20166;-57
2023/11/10 00:05:09;;;;;;;;;;;9.50;99.90;;;;;;5000672;28;20022;-57
2023/11/10 00:07:35;;;;;;;5.18;1.45;;;9.50;99.90;;;;;;5008673;28;19905;-58
2023/11/10 00:10:04;;;;;;;6.35;1.92;;;9.50;99.90;;;;;;5009296;28;20488;-58
2023/11/10 00:12:30;;;;;;;9.65;1.95;;;9.50;99.90;;;;;;5009026;28;20040;-58
2023/11/10 00:15:00;;;;;;;10.15;1.75;;;9.60;99.90;;;;;;5008660;28;20511;-58
2023/11/10 00:17:25;;;;;;;4.90;1.73;;;9.60;99.90;;;;;;5008811;28;20037;-57
2023/11/10 00:19:52;;;;;;;12.80;3.35;;;9.60;99.90;;;;;;5009043;28;20022;-57
2023/11/10 00:22:18;;;;;;;9.18;1.70;;;9.60;99.90;;;;;;5008817;28;20026;-57
2023/11/10 00:24:45;;;;;;;5.72;1.50;;;9.70;99.90;;;;;;5008516;28;20404;-57
2023/11/10 00:27:14;;;;;;;6.45;2.15;;;9.70;99.90;;;;;;5008362;28;20382;-57
2023/11/10 00:29:48;;;;;;;8.10;1.77;;;9.80;99.90;;;;;;5008865;28;20034;-57
2023/11/10 00:32:14;;;;;;;5.63;1.50;;;9.80;99.90;;;;;;5008696;28;20026;-58
2023/11/10 00:34:40;;;;;;;11.55;1.70;;;9.80;99.90;;;;;;5008331;28;20048;-57
2023/11/10 00:37:07;;;;;;;3.08;1.85;;;9.80;99.90;;;;;;5008453;28;20026;-57
2023/11/10 00:39:33;;;;;;;5.47;1.42;;;9.90;99.90;;;;;;5008511;28;20014;-57
2023/11/10 00:41:58;;;;;;;5.25;1.80;;;9.80;99.90;;;;;;5004017;28;20106;-57
2023/11/10 00:44:24;;;;;;;8.80;2.28;;;9.90;99.90;;;;;;5006179;28;20479;-57
2023/11/10 00:46:50;;;;;;;3.42;1.45;;;9.80;99.90;;;;;;5008689;28;20113;-57
2023/11/10 00:49:16;;;;;;;7.53;1.63;;;9.80;99.90;;;;;;5008762;28;20091;-57
2023/11/10 00:51:42;;;;;;;5.60;1.73;;;9.80;99.90;;;;;;5008176;28;20024;-57
2023/11/10 00:54:08;;;;;;;7.68;1.52;;;9.90;99.90;;;;;;5008931;28;20430;-57
2023/11/10 00:56:34;;;;;;;6.72;2.25;;;9.80;99.90;;;;;;5008092;28;20069;-57
2023/11/10 00:59:00;;;;;;;3.13;1.10;;;9.80;99.90;;;;;;5007688;28;20438;-57
2023/11/10 01:01:26;;;;;;;10.40;1.50;;;9.80;99.90;;;;;;5005368;28;20030;-57
2023/11/10 01:03:52;;;;;;;6.22;1.60;;;9.80;99.90;;;;;;5008440;28;20044;-58
2023/11/10 01:06:17;;;;;;;5.05;1.48;;;9.80;99.90;;;;;;5003106;28;20052;-57
2023/11/10 01:08:43;;;;;;;3.95;1.38;;;9.90;99.90;;;;;;5006853;28;20095;-57
2023/11/10 01:11:08;;;;;;;4.82;1.40;;;9.80;99.90;;;;;;5003591;28;20031;-57
2023/11/10 01:13:34;;;;;;;5.15;1.80;;;9.80;99.90;;;;;;5007225;28;20034;-57
2023/11/10 01:16:01;;;;;;;7.18;1.80;;;9.80;99.90;;;;;;5007691;28;20030;-58
2023/11/10 01:18:27;;;;;;;4.88;1.70;;;9.80;99.90;;;;;;5005191;28;20053;-58
2023/11/10 01:20:54;;;;;;;5.40;1.55;;;9.80;99.90;;;;;;5008045;28;20399;-57
2023/11/10 01:23:20;;;;;;;6.90;1.50;;;9.70;99.90;;;;;;5007799;28;20037;-58
2023/11/10 01:25:46;;;;;;;4.57;1.58;;;9.70;99.90;;;;;;5007579;28;20144;-58
2023/11/10 01:28:12;;;;;;;5.38;1.30;;;9.70;99.90;;;;;;5003408;28;20112;-58
2023/11/10 01:30:38;;;;;;;3.42;1.20;;;9.60;99.90;;;;;;5007608;28;20499;-57
2023/11/10 01:33:05;;;;;;;3.85;1.40;;;9.60;99.90;;;;;;5008315;28;20056;-57
2023/11/10 01:35:30;;;;;;;3.00;1.35;;;9.50;99.90;;;;;;5007378;28;20456;-57
2023/11/10 01:37:56;;;;;;;4.22;1.42;;;9.50;99.90;;;;;;5003503;28;20033;-57
2023/11/10 01:40:21;;;;;;;2.80;1.30;;;9.40;99.90;;;;;;5005541;28;20225;-57
2023/11/10 01:42:47;;;;;;;2.17;1.00;;;9.40;99.90;;;;;;5008006;28;20490;-57
2023/11/10 01:45:12;;;;;;;5.22;1.63;;;9.30;99.90;;;;;;4999235;28;20127;-57
2023/11/10 01:47:40;;;;;;;5.00;1.42;;;9.30;99.90;;;;;;5007965;28;20057;-57
2023/11/10 01:50:07;;;;;;;2.67;1.50;;;9.30;99.90;;;;;;5007994;28;20105;-57
2023/11/10 01:52:33;;;;;;;5.18;1.15;;;9.20;99.90;;;;;;5008300;28;20045;-57
2023/11/10 01:54:59;;;;;;;4.55;1.45;;;9.20;99.90;;;;;;5007811;28;20030;-57
2023/11/10 01:57:24;;;;;;;2.25;1.23;;;9.10;99.90;;;;;;5008200;28;20022;-57
2023/11/10 01:59:54;;;;;;;2.67;1.33;;;9.10;99.90;;;;;;5008226;28;20439;-57
2023/11/10 02:02:21;;;;;;;2.15;1.30;;;9.10;99.90;;;;;;5007867;28;20092;-57
2023/11/10 02:04:47;;;;;;;2.22;1.15;;;9.10;99.90;;;;;;5007956;28;20680;-57
2023/11/10 02:07:13;;;;;;;1.77;1.10;;;9.10;99.90;;;;;;5007998;28;20339;-57
2023/11/10 02:09:39;;;;;;;3.58;1.35;;;9.10;99.90;;;;;;5008330;28;20064;-57
2023/11/10 02:12:05;;;;;;;1.52;1.00;;;9.10;99.90;;;;;;5006691;28;20029;-58
2023/11/10 02:14:32;;;;;;;1.40;0.90;;;9.10;99.90;;;;;;5009770;28;20022;-57
2023/11/10 02:16:58;;;;;;;2.95;1.20;;;9.10;99.90;;;;;;5010763;28;20022;-57
2023/11/10 02:19:24;;;;;;;7.03;1.40;;;9.10;99.90;;;;;;5011063;28;20033;-57
2023/11/10 02:21:49;;;;;;;4.53;1.02;;;9.10;99.90;;;;;;4998331;28;20507;-57
2023/11/10 02:24:17;;;;;;;2.65;0.80;;;9.00;99.90;;;;;;5002929;28;20030;-57
2023/11/10 02:26:44;;;;;;;2.78;1.40;;;9.00;99.90;;;;;;5006453;28;20022;-57
2023/11/10 02:29:10;;;;;;;7.88;1.33;;;9.00;99.90;;;;;;5006894;28;20109;-58
2023/11/10 02:31:36;;;;;;;2.55;1.33;;;8.90;99.90;;;;;;5010764;28;20030;-58
2023/11/10 02:34:02;;;;;;;5.15;1.75;;;8.90;99.90;;;;;;5010692;28;20181;-58
2023/11/10 02:36:32;;;;;;;3.58;1.42;;;8.80;99.90;;;;;;5010575;28;20057;-58
2023/11/10 02:38:58;;;;;;;3.65;1.20;;;8.80;99.90;;;;;;5010983;28;20029;-58
2023/11/10 02:41:24;;;;;;;1.75;0.85;;;8.70;99.90;;;;;;5010521;28;20030;-58
2023/11/10 02:43:49;;;;;;;2.08;0.90;;;8.60;99.90;;;;;;5010572;28;20340;-58
2023/11/10 02:46:15;;;;;;;2.83;1.15;;;8.60;99.90;;;;;;5010242;28;20029;-58
2023/11/10 02:48:41;;;;;;;1.65;0.90;;;8.60;99.90;;;;;;5010740;28;20030;-58
2023/11/10 02:51:06;;;;;;;3.55;0.90;;;8.50;99.90;;;;;;5010746;28;20029;-58
2023/11/10 02:53:33;;;;;;;1.63;0.73;;;8.50;99.90;;;;;;5010299;28;20030;-58
2023/11/10 02:56:01;;;;;;;2.88;0.90;;;8.50;99.90;;;;;;5009889;28;20072;-58
2023/11/10 02:58:27;;;;;;;1.65;0.70;;;8.50;99.90;;;;;;5010314;28;20030;-58
2023/11/10 03:00:55;;;;;;;2.17;0.82;;;8.50;99.90;;;;;;5010203;28;20421;-58
2023/11/10 03:03:21;;;;;;;1.38;1.10;;;8.50;99.90;;;;;;5006386;28;20069;-58
2023/11/10 03:05:46;;;;;;;2.17;0.70;;;8.50;99.90;;;;;;5009794;28;20046;-58
2023/11/10 03:08:12;;;;;;;1.80;0.90;;;8.40;99.90;;;;;;5010229;28;20099;-58
2023/11/10 03:10:38;;;;;;;1.80;0.90;;;8.40;99.90;;;;;;5009948;28;20410;-58
2023/11/10 03:13:03;;;;;;;1.80;0.73;;;8.40;99.90;;;;;;5009959;28;20033;-58
2023/11/10 03:15:29;;;;;;;3.13;1.30;;;8.30;99.90;;;;;;5008313;28;20479;-58
2023/11/10 03:17:58;;;;;;;4.68;1.00;;;8.20;99.90;;;;;;5009974;28;20033;-58
2023/11/10 03:20:24;;;;;;;1.92;0.80;;;8.20;99.90;;;;;;4993031;28;20018;-58
2023/11/10 03:22:50;;;;;;;2.10;1.02;;;8.10;99.90;;;;;;4997436;28;20033;-58
2023/11/10 03:25:16;;;;;;;3.75;0.90;;;8.20;99.90;;;;;;4997729;28;20017;-58
2023/11/10 03:27:42;;;;;;;2.75;1.30;;;8.10;99.90;;;;;;4997461;28;20212;-58
2023/11/10 03:30:09;;;;;;;1.70;0.75;;;8.20;99.90;;;;;;4999366;28;20014;-58
2023/11/10 03:32:34;;;;;;;3.92;0.85;;;8.20;99.90;;;;;;4997758;28;20094;-58
2023/11/10 03:35:00;;;;;;;5.95;1.17;;;8.10;99.90;;;;;;5014081;28;20400;-58
2023/11/10 03:37:26;;;;;;;2.78;0.93;;;8.10;99.90;;;;;;4999341;28;20026;-58
2023/11/10 03:39:52;;;;;;;2.33;1.40;;;8.10;99.90;;;;;;5002693;28;20410;-58
2023/11/10 03:42:17;;;;;;;2.60;0.93;;;8.10;99.90;;;;;;5009460;28;20060;-58
2023/11/10 03:44:43;;;;;;;4.75;1.48;;;8.10;99.90;;;;;;5009233;28;20030;-58
2023/11/10 03:47:08;;;;;;;2.88;1.33;;;8.10;99.90;;;;;;5009132;28;20128;-58
2023/11/10 03:49:35;;;;;;;6.65;1.90;;;8.00;99.90;;;;;;5005218;28;20057;-58
2023/11/10 03:52:01;;;;;;;2.20;1.27;;;8.00;99.90;;;;;;5005897;28;20029;-58
2023/11/10 03:54:26;;;;;;;3.25;1.23;;;7.90;99.90;;;;;;5006225;28;20040;-59
2023/11/10 03:56:52;;;;;;;1.65;0.73;;;7.90;99.90;;;;;;5008983;28;20391;-58
2023/11/10 03:59:17;;;;;;;2.10;1.10;;;7.90;99.90;;;;;;5009064;28;20030;-60
2023/11/10 04:01:43;;;;;;;1.88;1.13;;;7.90;99.90;;;;;;5009428;28;20432;-58
2023/11/10 04:04:09;;;;;;;1.95;1.02;;;7.90;99.90;;;;;;5004916;28;20026;-58
2023/11/10 04:06:35;;;;;;;4.30;1.20;;;7.90;99.90;;;;;;5008304;28;20356;-58
2023/11/10 04:09:02;;;;;;;2.15;1.10;;;7.90;99.90;;;;;;5009531;28;20537;-58
2023/11/10 04:11:28;;;;;;;2.17;1.13;;;8.00;99.90;;;;;;5009267;28;20099;-59
2023/11/10 04:13:54;;;;;;;4.45;1.25;;;8.00;99.90;;;;;;5009144;28;20073;-59
2023/11/10 04:16:21;;;;;;;1.40;0.95;;;8.00;99.90;;;;;;5008616;28;20388;-58
2023/11/10 04:18:49;;;;;;;5.63;1.23;;;8.00;99.90;;;;;;5009032;28;20038;-58
2023/11/10 04:21:16;;;;;;;2.72;0.90;;;8.00;99.90;;;;;;5009114;28;20046;-58
2023/11/10 04:23:41;;;;;;;5.90;1.10;;;8.00;99.90;;;;;;5008971;28;20356;-58
2023/11/10 04:26:07;;;;;;;2.08;1.17;;;8.00;99.90;;;;;;5008602;28;20018;-58
2023/11/10 04:28:36;;;;;;;3.78;1.40;;;8.00;99.90;;;;;;5008695;28;20460;-59
2023/11/10 04:31:02;;;;;;;8.68;2.67;;;8.00;99.90;;;;;;5008829;28;20439;-59
2023/11/10 04:33:28;;;;;;;3.05;1.60;;;8.00;99.90;;;;;;5007925;28;20028;-58
2023/11/10 04:35:59;;;;;;;2.28;1.05;;;7.90;99.90;;;;;;5008300;28;20103;-59
2023/11/10 04:38:28;;;;;;;9.40;2.28;;;7.90;99.90;;;;;;5008727;28;20034;-58
2023/11/10 04:40:55;;;;;;;5.22;1.48;;;7.90;99.90;;;;;;5008488;28;20022;-59
2023/11/10 04:43:20;;;;;;;6.45;1.67;;;7.80;99.90;;;;;;5008386;28;20068;-58
2023/11/10 04:45:46;;;;;;;5.60;1.40;;;7.80;99.90;;;;;;5008248;28;20113;-58
2023/11/10 04:48:11;;;;;;;8.02;1.42;;;7.80;99.90;;;;;;5008959;28;20041;-58
2023/11/10 04:50:38;;;;;;;5.28;1.40;;;7.80;99.90;;;;;;5008502;28;20026;-60
2023/11/10 04:53:03;;;;;;;21.27;3.05;;;7.70;99.90;;;;;;5008363;28;20096;-59
2023/11/10 04:55:29;;;;;;;6.38;1.50;;;7.70;99.90;;;;;;5005093;28;20507;-59
2023/11/10 04:57:55;;;;;;;4.72;1.25;;;7.70;99.90;;;;;;5008352;28;20108;-59
2023/11/10 05:00:23;;;;;;;16.75;1.60;;;7.60;99.90;;;;;;5000353;28;20098;-59
2023/11/10 05:02:49;;;;;;;4.55;1.30;;;7.60;99.90;;;;;;5008345;28;20033;-59
2023/11/10 05:05:15;;;;;;;3.05;1.48;;;7.60;99.90;;;;;;5006528;28;20476;-59
2023/11/10 05:07:41;;;;;;;8.30;2.30;;;7.50;99.90;;;;;;5008159;28;20030;-60
2023/11/10 05:10:08;;;;;;;2.88;1.30;;;7.40;99.90;;;;;;5007978;28;20030;-60
2023/11/10 05:12:37;;;;;;;4.03;1.15;;;7.40;99.90;;;;;;5008458;28;20437;-59
2023/11/10 05:15:05;;;;;;;3.88;0.93;;;7.40;99.90;;;;;;5007925;28;20060;-59
2023/11/10 05:17:35;;;;;;;5.55;1.67;;;7.40;99.90;;;;;;5008018;28;20026;-59
2023/11/10 05:20:01;;;;;;;2.25;0.90;;;7.30;99.90;;;;;;5003568;28;20022;-59
2023/11/10 05:22:29;;;;;;;4.18;1.35;;;7.30;99.90;;;;;;5006219;28;20127;-59
2023/11/10 05:24:55;;;;;;;1.98;1.05;;;7.40;99.90;;;;;;5002980;28;20433;-59
2023/11/10 05:27:21;;;;;;;4.50;1.33;;;7.40;99.90;;;;;;5004996;28;20018;-59
2023/11/10 05:29:47;;;;;;;4.95;0.75;;;7.40;99.90;;;;;;5008020;28;20113;-59
2023/11/10 05:32:14;;;;;;;4.85;1.00;;;7.50;99.90;;;;;;5008057;28;20018;-59
2023/11/10 05:34:40;;;;;;;3.53;1.17;;;7.50;99.90;;;;;;5008021;28;20041;-59
2023/11/10 05:37:09;;;;;;;1.75;0.90;;;7.50;99.90;;;;;;5007985;28;20113;-59
2023/11/10 05:39:35;;;;;;;4.70;1.17;;;7.50;99.90;;;;;;5008422;28;20022;-59
2023/11/10 05:42:00;;;;;;;5.90;1.30;;;7.50;99.90;;;;;;5008132;28;20033;-59
2023/11/10 05:44:26;;;;;;;6.10;1.10;;;7.50;99.90;;;;;;5008236;28;20037;-59
2023/11/10 05:46:52;;;;;;;7.65;1.40;;;7.60;99.90;;;;;;5011620;28;20022;-59
2023/11/10 05:49:17;;;;;;;5.18;1.20;;;7.50;99.90;;;;;;5007371;28;20053;-60
2023/11/10 05:51:43;;;;;;;6.03;1.65;;;7.60;99.90;;;;;;5011780;28;20049;-59
2023/11/10 05:54:08;;;;;;;3.58;1.10;;;7.50;99.90;;;;;;5011485;28;20030;-59
2023/11/10 05:56:34;;;;;;;3.13;0.95;;;7.50;99.90;;;;;;5010960;28;20025;-59
2023/11/10 05:59:01;;;;;;;2.58;1.00;;;7.50;99.90;;;;;;5011384;28;20026;-59
2023/11/10 06:01:28;;;;;;;5.18;1.30;;;7.50;99.90;;;;;;5011546;28;20044;-58
2023/11/10 06:03:54;;;;;;;4.47;1.02;;;7.50;99.90;;;;;;5011513;28;20373;-59
2023/11/10 06:06:24;;;;;;;6.18;1.20;;;7.50;99.90;;;;;;5010965;28;20041;-59
2023/11/10 06:08:50;;;;;;;6.10;1.05;;;7.50;99.90;;;;;;5010514;28;20368;-59
2023/11/10 06:11:23;;;;;;;7.70;2.10;;;7.50;99.90;;;;;;5011252;28;20041;-59
2023/11/10 06:13:49;;;;;;;3.53;1.40;;;7.50;99.90;;;;;;5011480;28;20058;-59
2023/11/10 06:16:16;;;;;;;3.95;0.90;;;7.50;99.90;;;;;;5006234;28;20113;-59
2023/11/10 06:18:42;;;;;;;1.83;0.90;;;7.50;99.90;;;;;;5018347;28;20030;-59
2023/11/10 06:21:09;;;;;;;3.78;0.90;;;7.50;99.90;;;;;;5011087;28;20132;-58
2023/11/10 06:23:34;;;;;;;1.25;1.08;;;7.50;99.90;;;;;;5008685;28;20321;-58
2023/11/10 06:26:00;;;;;;;4.70;0.98;;;7.40;99.90;;;;;;5010516;28;20033;-58
2023/11/10 06:28:26;;;;;;;2.45;0.90;;;7.40;99.90;;;;;;5010919;28;20104;-58
2023/11/10 06:30:52;;;;;;;2.55;0.93;;;7.40;99.90;;;;;;5011046;28;20038;-58
2023/11/10 06:33:18;;;;;;;6.05;1.00;;;7.40;99.90;;;;;;5011410;28;20044;-58
2023/11/10 06:35:43;;;;;;;3.53;0.85;;;7.40;99.90;;;;;;5010454;28;20026;-58
2023/11/10 06:38:09;;;;;;;4.53;1.77;;;7.40;99.90;;;;;;5011029;28;20033;-58
2023/11/10 06:40:34;;;;;;;6.97;1.45;;;7.40;99.90;;;;;;5010306;28;20036;-58
2023/11/10 06:43:00;;;;;;;4.72;1.00;;;7.40;99.90;;;;;;5005639;28;20061;-58
2023/11/10 06:45:26;;;;;;;4.18;1.13;;;7.40;99.90;;;;;;5007306;28;20069;-58
2023/11/10 06:47:52;;;;;;;4.90;1.10;;;7.40;99.90;;;;;;5004173;28;20037;-59
2023/11/10 06:50:18;;;;;;;3.70;1.02;;;7.40;99.90;;;;;;5005656;28;20030;-58
2023/11/10 06:52:43;;;;;;;4.63;1.10;;;7.50;99.90;;;;;;5009177;28;20025;-59
2023/11/10 06:55:13;;;;;;;4.25;1.00;;;7.50;99.90;;;;;;5019637;28;20046;-59
2023/11/10 06:57:39;;;;;;;5.57;0.93;;;7.50;99.90;;;;;;5007705;28;20013;-59
2023/11/10 07:00:09;;;;;;;1.95;1.00;;;7.60;99.90;;;;;;5005396;28;20439;-61
2023/11/10 07:02:35;;;;;;;3.47;0.90;;;7.60;99.90;;;;;;5008893;28;20029;-59
2023/11/10 07:05:01;;;;;;;2.33;0.80;;;7.60;99.90;;;;;;5005222;28;20022;-59
2023/11/10 07:07:26;;;;;;;1.85;0.75;;;7.60;99.90;;;;;;5007832;28;20068;-59
2023/11/10 07:09:53;;;;;;;2.85;0.85;;;7.60;99.90;;;;;;5014047;28;20379;-59
2023/11/10 07:12:19;;;;;;;0.90;0.80;;;7.70;99.90;;;;;;5006959;28;20018;-59
2023/11/10 07:14:44;;;;;;;3.58;1.05;;;7.70;99.90;;;;;;5008237;28;20083;-59
2023/11/10 07:17:14;;;;;;;4.18;1.00;;;7.70;99.90;;;;;;5004120;28;20022;-58
2023/11/10 07:19:39;;;;;;;3.78;1.00;;;7.70;99.90;;;;;;5008969;28;20036;-59
2023/11/10 07:22:05;;;;;;;1.23;0.70;;;7.70;99.90;;;;;;5004732;28;20026;-59
2023/11/10 07:24:30;;;;;;;3.85;0.70;;;7.70;99.90;;;;;;5006522;28;20057;-59
2023/11/10 07:26:56;;;;;;;6.28;1.30;;;7.70;99.90;;;;;;5005602;28;20022;-59
2023/11/10 07:29:22;;;;;;;4.65;1.00;;;7.70;99.90;;;;;;5006237;28;20050;-59
2023/11/10 07:31:48;;;;;;;3.17;0.93;;;7.60;99.90;;;;;;5007345;28;20036;-60
2023/11/10 07:34:14;;;;;;;4.53;1.08;;;7.60;99.90;;;;;;4993723;28;20057;-59
2023/11/10 07:36:40;;;;;;;5.03;1.17;;;7.60;99.90;;;;;;5008402;28;20062;-59
2023/11/10 07:39:06;;;;;;;7.07;1.45;;;7.70;99.90;;;;;;5009497;28;20026;-58
2023/11/10 07:41:34;;;;;;;1.38;0.80;;;7.70;99.90;;;;;;5009472;28;20507;-58
2023/11/10 07:44:00;;;;;;;3.95;1.45;;;7.80;99.90;;;;;;5008305;28;20049;-58
2023/11/10 07:46:27;;;;;;;3.42;0.80;;;7.80;99.90;;;;;;5009068;28;20507;-58
2023/11/10 07:48:52;;;;;;;4.47;1.15;;;7.80;99.90;;;;;;5009208;28;20026;-58
2023/11/10 07:51:18;;;;;;;4.05;1.70;;;7.90;99.90;;;;;;5009511;28;20417;-58
2023/11/10 07:53:43;;;;;;;1.83;0.90;;;7.90;99.90;;;;;;5009754;28;20057;-58
2023/11/10 07:56:09;;;;;;;1.48;0.68;;;7.90;99.90;;;;;;5004707;28;20117;-58
2023/11/10 07:58:36;;;;;;;8.25;1.25;;;8.00;99.90;;;;;;5008642;28;20050;-58
2023/11/10 08:01:01;;;;;;;1.95;0.85;;;8.10;99.90;;;;;;5009341;28;20503;-57
2023/11/10 08:03:27;;;;;;;2.25;0.82;;;8.20;99.90;;;;;;5009229;28;20140;-57
2023/11/10 08:05:53;;;;;;;3.00;1.20;;;8.30;99.90;;;;;;5008767;28;20168;-57
2023/11/10 08:08:19;;;;;;;6.72;1.30;;;8.40;99.90;;;;;;5008407;28;20108;-57
2023/11/10 08:10:47;;;;;;;3.30;1.00;;;8.50;99.90;;;;;;5004689;28;20122;-57
2023/11/10 08:13:12;;;;;;;5.25;1.10;;;8.60;99.90;;;;;;5005330;28;20022;-57
2023/11/10 08:15:39;;;;;;;2.05;1.00;;;8.50;99.90;;;;;;5008682;28;20159;-57
2023/11/10 08:18:04;;;;;;;3.17;1.00;;;8.50;99.90;;;;;;5004602;28;20332;-57
2023/11/10 08:20:30;;;;;;;3.80;1.85;;;8.50;99.90;;;;;;5007525;28;20083;-57
2023/11/10 08:22:56;;;;;;;3.75;1.00;;;8.50;99.90;;;;;;5009557;28;20388;-58
2023/11/10 08:25:22;;;;;;;2.85;0.95;;;8.50;99.90;;;;;;5008508;28;20017;-57
2023/11/10 08:27:47;;;;;;;4.10;0.95;;;8.50;99.90;;;;;;5009152;28;20368;-57
2023/11/10 08:30:13;;;;;;;2.03;1.23;;;8.50;99.90;;;;;;5009040;28;20029;-57
2023/11/10 08:32:40;;;;;;;4.45;1.23;;;8.50;99.90;;;;;;5008998;28;20034;-57
2023/11/10 08:35:07;;;;;;;5.40;1.20;;;8.60;99.90;;;;;;5008691;28;20049;-57
2023/11/10 08:37:32;;;;;;;2.65;1.00;;;8.70;99.90;;;;;;5008736;28;20025;-57
2023/11/10 08:39:58;;;;;;;2.67;1.25;;;8.70;99.90;;;;;;5009205;28;20025;-58
2023/11/10 08:42:23;;;;;;;5.15;2.05;;;8.80;99.90;;;;;;5008735;28;20063;-58
2023/11/10 08:44:49;;;;;;;3.88;1.15;;;8.80;99.90;;;;;;5008352;28;20088;-57
2023/11/10 08:47:16;;;;;;;2.80;1.42;;;8.90;99.90;;;;;;5008824;28;20025;-57
2023/11/10 08:49:45;;;;;;;2.30;1.17;;;9.00;99.90;;;;;;5008735;28;20018;-57
2023/11/10 08:52:11;;;;;;;3.80;0.93;;;9.00;99.90;;;;;;5008917;28;20032;-58
2023/11/10 08:54:37;;;;;;;4.72;1.13;;;9.00;99.90;;;;;;5008447;28;20018;-58
2023/11/10 08:57:03;;;;;;;2.80;1.23;;;9.00;99.90;;;;;;5008620;28;20068;-57
2023/11/10 08:59:30;;;;;;;5.70;1.10;;;9.10;99.90;;;;;;5008715;28;20407;-58
2023/11/10 09:01:56;;;;;;;2.13;1.30;;;9.10;99.90;;;;;;5008643;28;20033;-57
2023/11/10 09:04:22;;;;;;;4.68;1.13;;;9.10;99.90;;;;;;5008120;28;20033;-57
2023/11/10 09:06:48;;;;;;;2.40;1.10;;;9.10;99.90;;;;;;5008414;28;20036;-57
2023/11/10 09:09:14;;;;;;;2.30;1.02;;;9.10;99.90;;;;;;5008349;28;20061;-57
2023/11/10 09:11:39;;;;;;;1.52;0.82;;;9.20;99.90;;;;;;5008391;28;20018;-57
2023/11/10 09:14:05;;;;;;;1.65;0.98;;;9.30;99.90;;;;;;5008779;28;20073;-57
2023/11/10 09:16:30;;;;;;;3.97;1.00;;;9.30;99.90;;;;;;5007021;28;20042;-57
2023/11/10 09:18:56;;;;;;;5.07;1.00;;;9.40;99.90;;;;;;5008101;28;20026;-57
2023/11/10 09:21:21;;;;;;;8.20;1.63;;;9.40;99.90;;;;;;5011946;28;20109;-57
2023/11/10 09:23:47;;;;;;;2.83;0.90;;;9.50;99.90;;;;;;5012602;28;20026;-57
2023/11/10 09:26:13;;;;;;;3.78;1.15;;;9.50;99.90;;;;;;5011940;28;20029;-57
2023/11/10 09:28:38;;;;;;;1.25;0.82;;;9.60;99.90;;;;;;5012097;28;20034;-58
2023/11/10 09:31:04;;;;;;;4.20;1.90;;;9.70;99.90;;;;;;5012163;28;20034;-58
2023/11/10 09:33:30;;;;;;;3.05;1.27;;;9.70;99.90;;;;;;5011783;28;20344;-58
2023/11/10 09:35:55;;;;;;;7.47;1.40;;;9.90;99.90;;;;;;5011749;28;20502;-58
2023/11/10 09:38:21;;;;;;;3.78;1.25;;;10.00;99.90;;;;;;5012316;28;20057;-58
2023/11/10 09:40:47;;;;;;;3.85;1.35;;;10.10;99.90;;;;;;5012389;28;20026;-59
2023/11/10 09:43:15;;;;;;;1.73;0.95;;;10.10;99.90;;;;;;5011987;28;20081;-56
2023/11/10 09:45:50;;;;;;;4.07;0.95;;;10.20;99.90;;;;;;5011322;28;20049;-57
2023/11/10 09:48:17;;;;;;;3.00;1.30;;;10.30;99.90;;;;;;5011440;28;20037;-58
2023/11/10 09:50:45;;;;;;;1.98;0.88;;;10.60;99.90;;;;;;5011851;28;20030;-57
2023/11/10 09:53:13;;;;;;;2.55;1.00;;;10.80;99.90;;;;;;5011844;28;20471;-57
2023/11/10 09:55:40;;;;;;;2.63;1.00;;;11.20;99.90;;;;;;5008485;28;20116;-57
2023/11/10 09:58:09;;;;;;;2.60;1.05;;;11.30;99.90;;;;;;5026605;28;20046;-58
2023/11/10 10:00:36;;;;;;;2.63;1.00;;;11.30;99.90;;;;;;5011977;28;20022;-58
2023/11/10 10:03:03;;;;;;;2.10;1.00;;;11.70;99.90;;;;;;5010252;28;20561;-58
2023/11/10 10:05:29;;;;;;;6.57;1.15;;;11.90;99.90;;;;;;4996069;28;20501;-58
2023/11/10 10:07:55;;;;;;;4.40;1.50;;;12.10;99.90;;;;;;5006440;28;20014;-58
2023/11/10 10:10:22;;;;;;;1.73;0.98;;;13.20;99.90;;;;;;5010426;28;20028;-58
2023/11/10 10:12:48;;;;;;;3.13;0.90;;;14.10;99.90;;;;;;5028140;28;20448;-57
2023/11/10 10:15:25;;;;;;;2.08;0.70;;;13.90;99.50;;;;;;5026687;28;20053;-57
2023/11/10 10:17:52;;;;;;;2.05;1.15;;;13.80;99.80;;;;;;5030414;28;20018;-57
2023/11/10 10:20:19;;;;;;;2.30;1.13;;;13.80;98.80;;;;;;5030323;28;20021;-57
2023/11/10 10:22:47;;;;;;;2.53;1.10;;;14.40;97.20;;;;;;5029941;28;20057;-57
2023/11/10 10:25:13;;;;;;;4.18;1.02;;;14.00;97.60;;;;;;5029667;28;20029;-57
2023/11/10 10:27:40;;;;;;;4.65;1.30;;;13.80;97.90;;;;;;5029964;28;20104;-57
2023/11/10 10:30:06;;;;;;;4.05;0.88;;;13.40;98.80;;;;;;5031013;28;20112;-57
2023/11/10 10:32:33;;;;;;;4.78;1.55;;;12.80;99.60;;;;;;5028146;28;20084;-57
2023/11/10 10:34:59;;;;;;;5.57;1.17;;;12.50;99.90;;;;;;5025484;28;20014;-57
2023/11/10 10:37:29;;;;;;;3.70;1.38;;;12.30;99.90;;;;;;5021751;28;20036;-57
2023/11/10 10:39:59;;;;;;;3.67;1.10;;;12.10;99.90;;;;;;5031099;28;20028;-57
2023/11/10 10:42:34;;;;;;;2.08;0.95;;;12.20;99.90;;;;;;5018850;28;20479;-57
2023/11/10 10:45:01;;;;;;;2.13;0.93;;;12.70;99.90;;;;;;5005516;28;20030;-57
2023/11/10 10:47:28;;;;;;;4.07;1.23;;;12.90;99.90;;;;;;5010687;28;20026;-57
2023/11/10 10:49:54;;;;;;;3.35;1.00;;;12.70;99.90;;;;;;5010750;28;20021;-57
2023/11/10 10:52:23;;;;;;;4.47;1.10;;;12.50;99.90;;;;;;5010251;28;20030;-57
2023/11/10 10:54:48;;;;;;;1.50;1.17;;;12.20;99.90;;;;;;5007538;28;20052;-57
2023/11/10 10:57:15;;;;;;;1.98;1.00;;;12.00;99.90;;;;;;5005896;28;20480;-57
2023/11/10 10:59:43;;;;;;;2.47;1.13;;;11.90;99.90;;;;;;5008323;28;20014;-57
2023/11/10 11:02:10;;;;;;;3.97;0.90;;;11.70;99.90;;;;;;5010204;28;20539;-57
2023/11/10 11:04:52;;;;;;;2.22;1.25;;;11.50;99.90;;;;;;5010012;28;20033;-57
2023/11/10 11:07:50;;;;;;;4.47;1.50;;;11.50;99.90;;;;;;5010150;28;20429;-57
2023/11/10 11:10:31;;;;;;;3.78;1.02;;;12.10;99.90;;;;;;5010400;28;20105;-58
2023/11/10 11:13:27;;;;;;;2.38;1.13;;;12.40;99.90;;;;;;5010295;28;20084;-58
2023/11/10 11:16:31;;;;;;;2.10;1.35;;;13.40;99.20;;;;;;5009639;28;20022;-57
2023/11/10 11:19:18;;;;;;;2.22;1.10;;;12.90;99.30;;;;;;5009327;28;20140;-57
2023/11/10 11:21:44;;;;;;;3.97;1.13;;;12.50;99.80;;;;;;5010557;28;20076;-58
2023/11/10 11:24:12;;;;;;;3.38;1.10;;;12.30;99.90;;;;;;5010384;28;20022;-57
2023/11/10 11:26:37;;;;;;;1.70;0.90;;;12.30;99.90;;;;;;5008223;28;20030;-57
2023/11/10 11:29:06;;;;;;;3.67;1.30;;;12.30;99.90;;;;;;5010488;28;20068;-58
2023/11/10 11:31:46;;;;;;;2.00;1.00;;;13.10;99.70;;;;;;5009910;28;20176;-58
2023/11/10 11:34:16;;;;;;;3.97;1.30;;;13.20;99.30;;;;;;5010270;28;20026;-57
2023/11/10 11:36:46;;;;;;;2.23;0.93;;;13.10;99.00;;;;;;5005406;28;20488;-57
2023/11/10 11:39:15;;;;;;;2.40;1.15;;;14.60;98.20;;;;;;5006260;28;20496;-58
2023/11/10 11:41:49;;;;;;;2.47;1.37;;;16.00;95.70;;;;;;5010132;28;20030;-58
2023/11/10 11:44:26;;;;;;;2.95;1.00;;;16.80;92.40;;;;;;5004963;28;20026;-58
2023/11/10 11:47:04;;;;;;;5.38;0.93;;;18.60;90.90;;;;;;5001536;28;20026;-58
2023/11/10 11:49:29;;;;;;;3.83;0.90;;;19.30;86.00;;;;;;5010015;28;20499;-58
2023/11/10 11:51:56;;;;;;;2.45;1.30;;;19.00;83.80;;;;;;5010042;28;20281;-58
2023/11/10 11:54:26;;;;;;;0.77;0.77;;;18.60;86.70;;;;;;5009716;28;20026;-58
2023/11/10 11:56:53;;;;;;;4.38;1.00;;;18.20;86.40;;;;;;5009886;28;20112;-58
2023/11/10 11:59:20;;;;;;;4.57;1.05;;;18.10;87.20;;;;;;5009434;28;20105;-58
2023/11/10 12:01:46;;;;;;;1.55;0.80;;;16.90;85.90;;;;;;5004606;28;20033;-58
2023/11/10 12:04:11;;;;;;;2.35;1.27;;;16.20;88.70;;;;;;5003866;28;20030;-58
2023/11/10 12:06:37;;;;;;;2.97;1.00;;;15.20;89.70;;;;;;5009223;28;20189;-57
2023/11/10 12:09:03;;;;;;;2.55;1.25;;;14.70;90.80;;;;;;5009107;28;20041;-57
2023/11/10 12:11:30;;;;;;;2.55;1.15;;;14.00;91.20;;;;;;5008997;28;20052;-57
2023/11/10 12:13:56;;;;;;;2.42;1.20;;;13.70;92.50;;;;;;4995634;28;20428;-58
2023/11/10 12:16:22;;;;;;;1.10;0.93;;;13.20;92.80;;;;;;4989763;28;20038;-58
2023/11/10 12:18:51;;;;;;;3.42;1.58;;;12.90;93.70;;;;;;4990572;28;20018;-58
2023/11/10 12:21:17;;;;;;;2.50;1.15;;;12.70;94.50;;;;;;4990313;28;20046;-58
2023/11/10 12:23:43;;;;;;;3.75;1.00;;;12.50;94.70;;;;;;4997126;28;20120;-58
2023/11/10 12:26:09;;;;;;;1.00;0.90;;;12.40;95.60;;;;;;5004701;28;20105;-58
2023/11/10 12:28:38;;;;;;;1.20;0.80;;;12.50;95.30;;;;;;4992320;28;20404;-58
2023/11/10 12:31:05;;;;;;;1.25;0.90;;;12.50;95.90;;;;;;5009921;28;20022;-58
2023/11/10 12:33:34;;;;;;;3.33;0.93;;;12.40;96.10;;;;;;5009603;28;20030;-58
2023/11/10 12:35:59;;;;;;;2.25;1.00;;;12.50;96.20;;;;;;5009149;28;20033;-58
2023/11/10 12:38:25;;;;;;;3.05;1.10;;;12.40;96.00;;;;;;5009501;28;20026;-58
2023/11/10 12:40:55;;;;;;;1.48;0.63;;;12.40;96.30;;;;;;5008486;28;20212;-58
2023/11/10 12:43:23;;;;;;;1.95;1.30;;;12.30;96.20;;;;;;5009548;28;20043;-58
2023/11/10 12:45:49;;;;;;;5.25;1.10;;;12.20;96.20;;;;;;5009004;28;20084;-58
2023/11/10 12:48:15;;;;;;;2.10;1.25;;;12.00;96.50;;;;;;5009718;28;20483;-58
2023/11/10 12:50:49;;;;;;;1.70;0.70;;;12.00;96.50;;;;;;5009866;28;20068;-58
2023/11/10 12:53:18;;;;;;;0.93;0.60;;;11.90;97.10;;;;;;5003946;28;20050;-58